Time,TemperatureF,DewpointF,PressureIn,WindDirection,WindDirectionDegrees,WindSpeedMPH,WindSpeedGustMPH,Humidity,HourlyPrecipIn,Conditions,Clouds,dailyrainin,SoftwareType,DateUTC
2013-08-08 00:01:00,65.7,61.7,30.09,NW,325,2.0,9.0,87,0.00,,,0.00,meteohub,2013-08-08 04:01:00,
2013-08-08 00:02:00,65.7,61.7,30.09,SE,129,4.0,9.0,87,0.00,,,0.00,meteohub,2013-08-08 04:02:00,
2013-08-08 00:07:00,66.0,62.1,30.09,SW,229,5.0,14.0,87,0.00,,,0.00,meteohub,2013-08-08 04:07:00,
2013-08-08 00:12:00,66.0,62.1,30.09,South,173,1.0,14.0,87,0.00,,,0.00,meteohub,2013-08-08 04:12:00,
2013-08-08 00:17:00,65.8,61.9,30.08,South,188,3.0,14.0,87,0.00,,,0.00,meteohub,2013-08-08 04:17:00,
2013-08-08 00:22:00,65.8,62.2,30.08,SSW,211,1.0,7.0,88,0.00,,,0.00,meteohub,2013-08-08 04:22:00,
2013-08-08 00:27:00,65.8,62.2,30.08,SSE,168,4.0,7.0,88,0.00,,,0.00,meteohub,2013-08-08 04:27:00,
2013-08-08 00:32:00,65.8,61.9,30.08,SE,142,3.0,7.0,87,0.00,,,0.00,meteohub,2013-08-08 04:32:00,
2013-08-08 00:37:00,65.7,61.7,30.08,SW,225,0.0,7.0,87,0.00,,,0.00,meteohub,2013-08-08 04:37:00,
2013-08-08 00:42:00,65.5,61.5,30.07,South,175,1.0,7.0,87,0.00,,,0.00,meteohub,2013-08-08 04:42:00,
2013-08-08 00:47:00,65.5,61.9,30.07,SW,217,2.0,6.0,88,0.00,,,0.00,meteohub,2013-08-08 04:47:00,
2013-08-08 00:52:00,65.5,61.9,30.07,SSE,161,5.0,5.0,88,0.00,,,0.00,meteohub,2013-08-08 04:52:00,
2013-08-08 00:57:00,65.5,62.2,30.07,South,169,1.0,5.0,89,0.00,,,0.00,meteohub,2013-08-08 04:57:00,
2013-08-08 01:02:00,65.5,62.2,30.07,SE,131,2.0,7.0,89,0.00,,,0.00,meteohub,2013-08-08 05:02:00,
2013-08-08 01:07:00,65.8,62.4,30.06,SSW,198,2.0,7.0,89,0.00,,,0.00,meteohub,2013-08-08 05:07:00,
2013-08-08 01:12:00,66.0,62.6,30.07,SSW,196,3.0,5.0,89,0.00,,,0.00,meteohub,2013-08-08 05:12:00,
2013-08-08 01:17:00,66.2,62.8,30.07,SW,217,1.0,7.0,89,0.00,,,0.00,meteohub,2013-08-08 05:17:00,
2013-08-08 01:22:00,66.2,62.6,30.06,SW,214,0.0,7.0,88,0.00,,,0.00,meteohub,2013-08-08 05:22:00,
2013-08-08 01:27:00,66.4,62.8,30.06,SSW,210,5.0,7.0,88,0.00,,,0.00,meteohub,2013-08-08 05:27:00,
2013-08-08 01:32:00,66.6,63.0,30.06,SW,225,3.0,6.0,88,0.00,,,0.00,meteohub,2013-08-08 05:32:00,
2013-08-08 01:37:00,66.6,63.0,30.06,SSW,201,1.0,6.0,88,0.00,,,0.00,meteohub,2013-08-08 05:37:00,
2013-08-08 01:42:00,66.6,63.0,30.06,SSW,211,1.0,7.0,88,0.00,,,0.00,meteohub,2013-08-08 05:42:00,
2013-08-08 01:47:00,66.6,63.0,30.06,South,187,5.0,8.0,88,0.00,,,0.00,meteohub,2013-08-08 05:47:00,
2013-08-08 01:52:00,66.6,63.0,30.06,South,180,3.0,8.0,88,0.00,,,0.00,meteohub,2013-08-08 05:52:00,
2013-08-08 01:58:00,66.7,63.3,30.06,SSW,198,1.0,8.0,89,0.00,,,0.00,meteohub,2013-08-08 05:58:00,
2013-08-08 02:03:00,66.7,63.3,30.06,SW,221,1.0,8.0,89,0.00,,,0.00,meteohub,2013-08-08 06:03:00,
2013-08-08 02:08:00,66.7,63.3,30.06,South,188,0.0,8.0,89,0.00,,,0.00,meteohub,2013-08-08 06:08:00,
2013-08-08 02:13:00,66.7,63.3,30.06,SW,233,1.0,6.0,89,0.00,,,0.00,meteohub,2013-08-08 06:13:00,
2013-08-08 02:18:00,66.6,63.1,30.06,West,259,2.0,4.0,89,0.00,,,0.00,meteohub,2013-08-08 06:18:00,
2013-08-08 02:23:00,66.7,63.3,30.06,SSW,205,1.0,6.0,89,0.00,,,0.00,meteohub,2013-08-08 06:23:00,
2013-08-08 02:28:00,66.7,63.3,30.06,SSW,200,1.0,6.0,89,0.00,,,0.00,meteohub,2013-08-08 06:28:00,
2013-08-08 02:33:00,66.7,63.3,30.06,South,190,0.0,6.0,89,0.00,,,0.00,meteohub,2013-08-08 06:33:00,
2013-08-08 02:38:00,66.7,63.3,30.06,SSW,212,1.0,6.0,89,0.00,,,0.00,meteohub,2013-08-08 06:38:00,
2013-08-08 02:43:00,66.7,63.3,30.06,SSE,161,3.0,6.0,89,0.00,,,0.00,meteohub,2013-08-08 06:43:00,
2013-08-08 02:48:00,66.9,63.5,30.06,SW,228,0.0,6.0,89,0.00,,,0.00,meteohub,2013-08-08 06:48:00,
2013-08-08 02:53:00,66.9,63.5,30.06,SW,228,1.0,8.0,89,0.00,,,0.00,meteohub,2013-08-08 06:53:00,
2013-08-08 02:58:00,66.9,63.5,30.06,WNW,289,0.0,8.0,89,0.00,,,0.00,meteohub,2013-08-08 06:58:00,
2013-08-08 03:03:00,66.9,63.5,30.05,WSW,253,1.0,8.0,89,0.00,,,0.00,meteohub,2013-08-08 07:03:00,
2013-08-08 03:08:00,66.9,63.5,30.04,SSW,194,1.0,7.0,89,0.00,,,0.00,meteohub,2013-08-08 07:08:00,
2013-08-08 03:13:00,66.7,63.7,30.04,SSW,209,1.0,7.0,90,0.00,,,0.00,meteohub,2013-08-08 07:13:00,
2013-08-08 03:18:00,66.7,63.7,30.04,SSW,205,1.0,7.0,90,0.00,,,0.00,meteohub,2013-08-08 07:18:00,
2013-08-08 03:23:00,66.6,63.5,30.04,WSW,240,0.0,6.0,90,0.00,,,0.00,meteohub,2013-08-08 07:23:00,
2013-08-08 03:28:00,66.6,63.5,30.04,SSW,205,0.0,6.0,90,0.00,,,0.00,meteohub,2013-08-08 07:28:00,
2013-08-08 03:33:00,66.7,63.7,30.04,SW,225,1.0,5.0,90,0.00,,,0.00,meteohub,2013-08-08 07:33:00,
2013-08-08 03:38:00,66.7,63.7,30.04,SW,225,0.0,4.0,90,0.00,,,0.00,meteohub,2013-08-08 07:38:00,
2013-08-08 03:43:00,66.7,63.7,30.05,West,281,3.0,4.0,90,0.00,,,0.00,meteohub,2013-08-08 07:43:00,
2013-08-08 03:48:00,66.7,63.7,30.05,SSW,200,0.0,4.0,90,0.00,,,0.00,meteohub,2013-08-08 07:48:00,
2013-08-08 03:53:00,66.9,63.9,30.04,SSW,200,0.0,4.0,90,0.00,,,0.00,meteohub,2013-08-08 07:53:00,
2013-08-08 03:58:00,66.9,63.9,30.04,SSW,200,0.0,4.0,90,0.00,,,0.00,meteohub,2013-08-08 07:58:00,
2013-08-08 04:03:00,66.7,63.7,30.04,SSW,200,0.0,5.0,90,0.00,,,0.00,meteohub,2013-08-08 08:03:00,
2013-08-08 04:08:00,66.7,63.7,30.04,SSW,200,0.0,5.0,90,0.00,,,0.00,meteohub,2013-08-08 08:08:00,
2013-08-08 04:13:00,66.7,63.7,30.04,West,273,0.0,5.0,90,0.00,,,0.00,meteohub,2013-08-08 08:13:00,
2013-08-08 04:18:00,66.7,63.7,30.03,SW,230,0.0,4.0,90,0.00,,,0.00,meteohub,2013-08-08 08:18:00,
2013-08-08 04:23:00,66.6,63.9,30.03,South,191,0.0,4.0,91,0.00,,,0.00,meteohub,2013-08-08 08:23:00,
2013-08-08 04:28:00,66.4,63.7,30.03,South,191,0.0,4.0,91,0.00,,,0.00,meteohub,2013-08-08 08:28:00,
2013-08-08 04:33:00,66.0,63.3,30.03,South,191,0.0,3.0,91,0.00,,,0.00,meteohub,2013-08-08 08:33:00,
2013-08-08 04:38:00,65.8,63.5,30.03,South,191,0.0,3.0,92,0.00,,,0.00,meteohub,2013-08-08 08:38:00,
2013-08-08 04:43:00,65.8,63.5,30.03,South,191,1.0,3.0,92,0.00,,,0.00,meteohub,2013-08-08 08:43:00,
2013-08-08 04:48:00,65.8,63.5,30.03,South,179,2.0,2.0,92,0.00,,,0.00,meteohub,2013-08-08 08:48:00,
2013-08-08 04:53:00,65.8,63.7,30.02,South,171,2.0,5.0,93,0.00,,,0.00,meteohub,2013-08-08 08:53:00,
2013-08-08 04:58:00,66.0,63.9,30.03,SSW,203,2.0,5.0,93,0.00,,,0.00,meteohub,2013-08-08 08:58:00,
2013-08-08 05:03:00,66.4,64.0,30.02,South,178,3.0,8.0,92,0.00,,,0.00,meteohub,2013-08-08 09:03:00,
2013-08-08 05:08:00,66.6,64.2,30.03,SSE,164,0.0,8.0,92,0.00,,,0.00,meteohub,2013-08-08 09:08:00,
2013-08-08 05:13:00,66.7,64.4,30.03,SW,223,0.0,8.0,92,0.00,,,0.00,meteohub,2013-08-08 09:13:00,
2013-08-08 05:18:00,66.7,64.0,30.03,SW,220,0.0,7.0,91,0.00,,,0.00,meteohub,2013-08-08 09:18:00,
2013-08-08 05:23:00,66.9,64.2,30.03,SW,220,0.0,5.0,91,0.00,,,0.00,meteohub,2013-08-08 09:23:00,
2013-08-08 05:28:00,66.7,64.0,30.04,SW,221,0.0,4.0,91,0.00,,,0.00,meteohub,2013-08-08 09:28:00,
2013-08-08 05:33:00,66.7,64.0,30.04,SW,221,0.0,1.0,91,0.00,,,0.00,meteohub,2013-08-08 09:33:00,
2013-08-08 05:38:00,66.9,64.2,30.04,NNW,329,0.0,1.0,91,0.00,,,0.00,meteohub,2013-08-08 09:38:00,
2013-08-08 05:43:00,66.9,64.2,30.04,NW,317,0.0,2.0,91,0.00,,,0.00,meteohub,2013-08-08 09:43:00,
2013-08-08 05:48:00,66.9,64.2,30.04,SSW,198,0.0,2.0,91,0.00,,,0.00,meteohub,2013-08-08 09:48:00,
2013-08-08 05:53:00,67.1,64.4,30.04,SSW,198,0.0,3.0,91,0.00,,,0.00,meteohub,2013-08-08 09:53:00,
2013-08-08 05:58:00,67.3,64.2,30.04,WSW,254,1.0,3.0,90,0.00,,,0.00,meteohub,2013-08-08 09:58:00,
2013-08-08 06:03:00,67.5,64.4,30.03,West,273,0.0,6.0,90,0.00,,,0.00,meteohub,2013-08-08 10:03:00,
2013-08-08 06:09:00,67.5,64.4,30.04,West,273,0.0,6.0,90,0.00,,,0.00,meteohub,2013-08-08 10:09:00,
2013-08-08 06:13:00,67.5,64.4,30.04,West,273,0.0,6.0,90,0.00,,,0.00,meteohub,2013-08-08 10:13:00,
2013-08-08 06:18:00,67.5,64.4,30.04,West,273,1.0,3.0,90,0.00,,,0.00,meteohub,2013-08-08 10:18:00,
2013-08-08 06:24:00,67.5,64.4,30.04,West,273,0.0,2.0,90,0.00,,,0.00,meteohub,2013-08-08 10:24:00,
2013-08-08 06:29:00,67.5,64.4,30.04,West,273,0.0,2.0,90,0.00,,,0.00,meteohub,2013-08-08 10:29:00,
2013-08-08 06:34:00,67.5,64.4,30.04,WNW,297,0.0,2.0,90,0.00,,,0.00,meteohub,2013-08-08 10:34:00,
2013-08-08 06:39:00,67.5,64.4,30.04,WNW,297,1.0,4.0,90,0.00,,,0.00,meteohub,2013-08-08 10:39:00,
2013-08-08 06:44:00,67.5,64.4,30.05,WNW,284,0.0,8.0,90,0.00,,,0.00,meteohub,2013-08-08 10:44:00,
2013-08-08 06:49:00,67.5,64.4,30.05,WNW,284,1.0,8.0,90,0.00,,,0.00,meteohub,2013-08-08 10:49:00,
2013-08-08 06:54:00,67.5,64.4,30.04,WNW,284,2.0,8.0,90,0.00,,,0.00,meteohub,2013-08-08 10:54:00,
2013-08-08 06:59:00,67.6,64.6,30.04,WNW,290,0.0,6.0,90,0.00,,,0.00,meteohub,2013-08-08 10:59:00,
2013-08-08 07:04:00,67.6,64.9,30.04,WNW,291,0.0,5.0,91,0.00,,,0.00,meteohub,2013-08-08 11:04:00,
2013-08-08 07:09:00,67.5,64.4,30.05,West,276,0.0,5.0,90,0.00,,,0.00,meteohub,2013-08-08 11:09:00,
2013-08-08 07:14:00,67.5,64.4,30.05,West,277,1.0,5.0,90,0.00,,,0.00,meteohub,2013-08-08 11:14:00,
2013-08-08 07:19:00,67.5,64.4,30.05,West,279,1.0,4.0,90,0.00,,,0.00,meteohub,2013-08-08 11:19:00,
2013-08-08 07:24:00,67.6,64.6,30.05,WSW,257,1.0,4.0,90,0.00,,,0.00,meteohub,2013-08-08 11:24:00,
2013-08-08 07:29:00,67.6,64.6,30.04,West,267,0.0,5.0,90,0.00,,,0.00,meteohub,2013-08-08 11:29:00,
2013-08-08 07:34:00,67.6,64.6,30.05,WSW,238,1.0,5.0,90,0.00,,,0.00,meteohub,2013-08-08 11:34:00,
2013-08-08 07:39:00,67.8,64.8,30.05,West,263,0.0,5.0,90,0.00,,,0.00,meteohub,2013-08-08 11:39:00,
2013-08-08 07:44:00,67.8,64.8,30.05,WNW,282,0.0,6.0,90,0.00,,,0.00,meteohub,2013-08-08 11:44:00,
2013-08-08 07:49:00,67.8,64.4,30.05,West,263,1.0,7.0,89,0.00,,,0.00,meteohub,2013-08-08 11:49:00,
2013-08-08 07:54:00,67.8,64.4,30.05,WSW,254,0.0,7.0,89,0.00,,,0.00,meteohub,2013-08-08 11:54:00,
2013-08-08 07:59:00,68.0,64.6,30.05,WSW,252,2.0,7.0,89,0.00,,,0.00,meteohub,2013-08-08 11:59:00,
2013-08-08 08:04:00,68.0,64.6,30.05,WSW,253,0.0,6.0,89,0.00,,,0.00,meteohub,2013-08-08 12:04:00,
2013-08-08 08:09:00,68.2,64.8,30.05,WSW,250,0.0,7.0,89,0.00,,,0.00,meteohub,2013-08-08 12:09:00,
2013-08-08 08:14:00,68.2,64.8,30.05,WSW,244,0.0,7.0,89,0.00,,,0.00,meteohub,2013-08-08 12:14:00,
2013-08-08 08:19:00,68.2,64.8,30.05,SSW,196,1.0,4.0,89,0.00,,,0.00,meteohub,2013-08-08 12:19:00,
2013-08-08 08:24:00,68.2,64.8,30.05,WSW,252,2.0,5.0,89,0.00,,,0.00,meteohub,2013-08-08 12:24:00,
2013-08-08 08:29:00,68.2,64.8,30.06,SW,214,4.0,7.0,89,0.00,,,0.00,meteohub,2013-08-08 12:29:00,
2013-08-08 08:34:00,68.4,64.9,30.06,WNW,291,0.0,7.0,89,0.00,,,0.00,meteohub,2013-08-08 12:34:00,
2013-08-08 08:39:00,68.5,65.1,30.06,WSW,241,0.0,7.0,89,0.00,,,0.00,meteohub,2013-08-08 12:39:00,
2013-08-08 08:44:00,68.7,65.3,30.06,West,275,1.0,7.0,89,0.00,,,0.00,meteohub,2013-08-08 12:44:00,
2013-08-08 08:49:00,69.1,65.3,30.06,West,271,0.0,5.0,88,0.00,,,0.00,meteohub,2013-08-08 12:49:00,
2013-08-08 08:54:00,69.4,65.5,30.06,WNW,284,3.0,6.0,87,0.00,,,0.00,meteohub,2013-08-08 12:54:00,
2013-08-08 08:59:00,69.4,65.5,30.07,SW,233,1.0,6.0,87,0.00,,,0.00,meteohub,2013-08-08 12:59:00,
2013-08-08 09:04:00,69.4,65.5,30.06,WSW,252,3.0,8.0,87,0.00,,,0.00,meteohub,2013-08-08 13:04:00,
2013-08-08 09:09:00,69.6,65.7,30.06,West,265,1.0,8.0,87,0.00,,,0.00,meteohub,2013-08-08 13:09:00,
2013-08-08 09:14:00,69.6,65.7,30.06,South,190,5.0,8.0,87,0.00,,,0.00,meteohub,2013-08-08 13:14:00,
2013-08-08 09:19:00,70.0,65.7,30.06,WSW,254,1.0,6.0,86,0.00,,,0.00,meteohub,2013-08-08 13:19:00,
2013-08-08 09:24:00,70.2,66.0,30.06,WSW,244,4.0,6.0,87,0.00,,,0.00,meteohub,2013-08-08 13:24:00,
2013-08-08 09:29:00,70.5,66.2,30.06,WNW,291,2.0,6.0,86,0.00,,,0.00,meteohub,2013-08-08 13:29:00,
2013-08-08 09:37:00,71.2,66.2,30.06,SW,227,3.0,7.0,84,0.00,,,0.00,meteohub,2013-08-08 13:37:00,
2013-08-08 09:42:00,71.2,66.2,30.06,WSW,244,4.0,8.0,84,0.00,,,0.00,meteohub,2013-08-08 13:42:00,
2013-08-08 09:47:00,71.4,66.0,30.06,WSW,257,5.0,8.0,83,0.00,,,0.00,meteohub,2013-08-08 13:47:00,
2013-08-08 09:52:00,71.2,66.2,30.06,West,261,0.0,8.0,84,0.00,,,0.00,meteohub,2013-08-08 13:52:00,
2013-08-08 09:58:00,71.1,66.0,30.06,WSW,254,5.0,8.0,84,0.00,,,0.00,meteohub,2013-08-08 13:58:00,
2013-08-08 10:04:00,71.1,66.4,30.06,SW,218,1.0,8.0,85,0.00,,,0.00,meteohub,2013-08-08 14:04:00,
2013-08-08 10:09:00,71.2,65.8,30.06,SSW,204,1.0,6.0,83,0.00,,,0.00,meteohub,2013-08-08 14:09:00,
2013-08-08 10:14:00,70.9,65.8,30.06,WSW,257,0.0,6.0,84,0.00,,,0.00,meteohub,2013-08-08 14:14:00,
2013-08-08 10:19:00,70.9,65.5,30.06,WSW,255,4.0,6.0,83,0.00,,,0.00,meteohub,2013-08-08 14:19:00,
2013-08-08 10:24:00,71.1,65.7,30.06,West,271,0.0,6.0,83,0.00,,,0.00,meteohub,2013-08-08 14:24:00,
2013-08-08 10:29:00,71.1,65.7,30.07,West,277,1.0,6.0,83,0.00,,,0.00,meteohub,2013-08-08 14:29:00,
2013-08-08 10:34:00,71.1,65.7,30.06,WSW,241,0.0,6.0,83,0.00,,,0.00,meteohub,2013-08-08 14:34:00,
2013-08-08 11:47:00,73.0,67.3,30.06,SSW,198,2.0,8.0,82,0.00,,,0.00,meteohub,2013-08-08 15:47:00,
2013-08-08 11:52:00,73.2,67.5,30.06,SW,233,2.0,8.0,82,0.00,,,0.00,meteohub,2013-08-08 15:52:00,
2013-08-08 11:57:00,73.9,67.8,30.06,South,182,3.0,8.0,81,0.00,,,0.00,meteohub,2013-08-08 15:57:00,
2013-08-08 12:02:00,74.5,67.1,30.06,WSW,248,4.0,8.0,78,0.00,,,0.00,meteohub,2013-08-08 16:02:00,
2013-08-08 12:07:00,73.8,66.4,30.05,SW,225,5.0,8.0,78,0.00,,,0.00,meteohub,2013-08-08 16:07:00,
2013-08-08 12:12:00,73.8,67.3,30.05,WSW,247,1.0,8.0,80,0.00,,,0.00,meteohub,2013-08-08 16:12:00,
2013-08-08 12:17:00,73.9,66.6,30.04,SSE,161,3.0,8.0,78,0.00,,,0.00,meteohub,2013-08-08 16:17:00,
2013-08-08 12:22:00,73.9,67.5,30.04,SSE,158,1.0,8.0,80,0.00,,,0.00,meteohub,2013-08-08 16:22:00,
2013-08-08 12:27:00,73.6,67.1,30.04,SSW,209,6.0,7.0,80,0.00,,,0.00,meteohub,2013-08-08 16:27:00,
2013-08-08 12:32:00,73.2,67.8,30.04,SW,225,2.0,7.0,83,0.00,,,0.00,meteohub,2013-08-08 16:32:00,
2013-08-08 12:37:00,73.6,67.1,30.04,SSW,205,2.0,7.0,80,0.00,,,0.00,meteohub,2013-08-08 16:37:00,
2013-08-08 12:42:00,74.5,67.5,30.04,SSE,167,7.0,7.0,79,0.00,,,0.00,meteohub,2013-08-08 16:42:00,
2013-08-08 12:47:00,75.0,67.3,30.04,South,179,1.0,8.0,77,0.00,,,0.00,meteohub,2013-08-08 16:47:00,
2013-08-08 12:52:00,75.7,68.4,30.04,NW,323,0.0,8.0,78,0.00,,,0.00,meteohub,2013-08-08 16:52:00,
2013-08-08 12:57:00,76.1,68.0,30.04,South,182,1.0,8.0,76,0.00,,,0.00,meteohub,2013-08-08 16:57:00,
2013-08-08 13:02:00,76.5,67.1,30.03,SSE,150,3.0,8.0,73,0.00,,,0.00,meteohub,2013-08-08 17:02:00,
2013-08-08 13:07:00,76.8,67.1,30.04,SW,217,2.0,8.0,72,0.00,,,0.00,meteohub,2013-08-08 17:07:00,
2013-08-08 13:12:00,77.2,67.5,30.04,South,189,1.0,7.0,72,0.00,,,0.00,meteohub,2013-08-08 17:12:00,
2013-08-08 13:18:00,77.2,67.8,30.04,SSW,207,1.0,7.0,73,0.00,,,0.00,meteohub,2013-08-08 17:18:00,
2013-08-08 13:23:00,77.0,68.0,30.04,WNW,286,0.0,7.0,74,0.00,,,0.00,meteohub,2013-08-08 17:23:00,
2013-08-08 13:28:00,77.2,68.2,30.04,West,266,0.0,9.0,74,0.00,,,0.00,meteohub,2013-08-08 17:28:00,
2013-08-08 13:33:00,77.4,68.0,30.04,NW,315,2.0,9.0,73,0.00,,,0.00,meteohub,2013-08-08 17:33:00,
2013-08-08 13:38:00,77.2,68.7,30.04,NW,304,4.0,6.0,75,0.00,,,0.00,meteohub,2013-08-08 17:38:00,
2013-08-08 13:43:00,76.5,67.6,30.04,WNW,300,2.0,5.0,74,0.00,,,0.00,meteohub,2013-08-08 17:43:00,
2013-08-08 13:48:00,76.1,68.4,30.04,WNW,291,0.0,5.0,77,0.00,,,0.00,meteohub,2013-08-08 17:48:00,
2013-08-08 13:53:00,76.3,68.5,30.04,West,274,1.0,5.0,77,0.00,,,0.00,meteohub,2013-08-08 17:53:00,
2013-08-08 13:58:00,76.1,68.0,30.04,West,271,3.0,5.0,76,0.00,,,0.00,meteohub,2013-08-08 17:58:00,
2013-08-08 14:03:00,75.7,68.4,30.05,West,275,0.0,4.0,78,0.00,,,0.00,meteohub,2013-08-08 18:03:00,
2013-08-08 14:08:00,75.6,68.2,30.05,WSW,242,3.0,5.0,78,0.00,,,0.00,meteohub,2013-08-08 18:08:00,
2013-08-08 14:13:00,75.2,67.8,30.05,NW,309,0.0,7.0,78,0.00,,,0.00,meteohub,2013-08-08 18:13:00,
2013-08-08 14:18:00,74.8,67.8,30.05,WSW,254,3.0,7.0,79,0.00,,,0.00,meteohub,2013-08-08 18:18:00,
2013-08-08 14:23:00,74.8,68.5,30.05,WNW,284,2.0,6.0,81,0.00,,,0.00,meteohub,2013-08-08 18:23:00,
2013-08-08 14:28:00,74.8,67.5,30.05,WNW,300,0.0,4.0,78,0.00,,,0.00,meteohub,2013-08-08 18:28:00,
2013-08-08 14:33:00,75.0,68.4,30.05,WSW,238,0.0,9.0,80,0.00,,,0.00,meteohub,2013-08-08 18:33:00,
2013-08-08 14:38:00,75.4,68.7,30.05,West,275,2.0,9.0,80,0.00,,,0.00,meteohub,2013-08-08 18:38:00,
2013-08-08 14:43:00,75.6,68.9,30.05,NW,311,1.0,9.0,80,0.00,,,0.00,meteohub,2013-08-08 18:43:00,
2013-08-08 14:48:00,76.5,69.1,30.04,SSW,209,2.0,5.0,78,0.00,,,0.00,meteohub,2013-08-08 18:48:00,
2013-08-08 14:53:00,76.8,68.7,30.04,SW,224,1.0,6.0,76,0.00,,,0.00,meteohub,2013-08-08 18:53:00,
2013-08-08 14:58:00,77.7,69.6,30.04,SSE,151,2.0,6.0,76,0.00,,,0.00,meteohub,2013-08-08 18:58:00,
2013-08-08 15:03:00,78.1,69.4,30.04,South,169,1.0,6.0,75,0.00,,,0.00,meteohub,2013-08-08 19:03:00,
2013-08-08 15:08:00,78.6,68.4,30.04,SW,215,3.0,5.0,71,0.00,,,0.00,meteohub,2013-08-08 19:08:00,
2013-08-08 15:13:00,79.0,69.3,30.04,South,183,1.0,5.0,72,0.00,,,0.00,meteohub,2013-08-08 19:13:00,
2013-08-08 15:19:00,79.5,69.3,30.04,WSW,257,2.0,5.0,71,0.00,,,0.00,meteohub,2013-08-08 19:19:00,
2013-08-08 15:24:00,79.5,68.5,30.04,West,269,3.0,5.0,69,0.00,,,0.00,meteohub,2013-08-08 19:24:00,
2013-08-08 15:29:00,79.2,68.2,30.04,WNW,294,2.0,7.0,69,0.00,,,0.00,meteohub,2013-08-08 19:29:00,
2013-08-08 15:34:00,79.2,68.5,30.03,SSW,213,2.0,8.0,70,0.00,,,0.00,meteohub,2013-08-08 19:34:00,
2013-08-08 15:39:00,79.3,69.1,30.04,West,259,1.0,9.0,71,0.00,,,0.00,meteohub,2013-08-08 19:39:00,
2013-08-08 15:44:00,79.3,69.4,30.03,SW,221,1.0,9.0,72,0.00,,,0.00,meteohub,2013-08-08 19:44:00,
2013-08-08 15:49:00,79.2,68.2,30.03,WSW,254,3.0,9.0,69,0.00,,,0.00,meteohub,2013-08-08 19:49:00,
2013-08-08 15:54:00,79.0,68.7,30.03,SW,228,1.0,7.0,71,0.00,,,0.00,meteohub,2013-08-08 19:54:00,
2013-08-08 15:59:00,78.3,68.5,30.03,SW,228,0.0,6.0,72,0.00,,,0.00,meteohub,2013-08-08 19:59:00,
2013-08-08 16:04:00,78.3,68.9,30.04,WSW,240,0.0,6.0,73,0.00,,,0.00,meteohub,2013-08-08 20:04:00,
2013-08-08 16:09:00,77.7,68.4,30.04,WNW,287,0.0,3.0,73,0.00,,,0.00,meteohub,2013-08-08 20:09:00,
2013-08-08 16:14:00,78.1,69.1,30.03,South,191,2.0,4.0,74,0.00,,,0.00,meteohub,2013-08-08 20:14:00,
2013-08-08 16:19:00,78.1,68.4,30.03,South,190,2.0,4.0,72,0.00,,,0.00,meteohub,2013-08-08 20:19:00,
2013-08-08 16:24:00,78.1,68.4,30.03,WSW,255,2.0,5.0,72,0.00,,,0.00,meteohub,2013-08-08 20:24:00,
2013-08-08 16:29:00,78.3,68.5,30.03,SW,236,2.0,6.0,72,0.00,,,0.00,meteohub,2013-08-08 20:29:00,
2013-08-08 16:34:00,79.0,69.6,30.02,WSW,238,1.0,6.0,73,0.00,,,0.00,meteohub,2013-08-08 20:34:00,
2013-08-08 16:39:00,79.3,69.1,30.02,WNW,300,1.0,6.0,71,0.00,,,0.00,meteohub,2013-08-08 20:39:00,
2013-08-08 16:44:00,79.7,69.8,30.02,SSW,212,1.0,5.0,72,0.00,,,0.00,meteohub,2013-08-08 20:44:00,
2013-08-08 16:49:00,79.5,69.3,30.02,West,270,2.0,5.0,71,0.00,,,0.00,meteohub,2013-08-08 20:49:00,
2013-08-08 16:54:00,79.5,68.9,30.01,SSW,206,3.0,5.0,70,0.00,,,0.00,meteohub,2013-08-08 20:54:00,
2013-08-08 16:59:00,79.3,69.1,30.01,WSW,246,2.0,8.0,71,0.00,,,0.00,meteohub,2013-08-08 20:59:00,
2013-08-08 17:04:00,79.3,68.7,30.01,SSW,198,4.0,8.0,70,0.00,,,0.00,meteohub,2013-08-08 21:04:00,
2013-08-08 17:09:00,78.6,68.4,30.01,SSW,213,4.0,8.0,71,0.00,,,0.00,meteohub,2013-08-08 21:09:00,
2013-08-08 17:15:00,78.6,69.3,30.01,WSW,240,0.0,6.0,73,0.00,,,0.00,meteohub,2013-08-08 21:15:00,
2013-08-08 17:20:00,79.0,68.7,30.01,WNW,297,1.0,5.0,71,0.00,,,0.00,meteohub,2013-08-08 21:20:00,
2013-08-08 17:25:00,79.0,68.7,30.01,West,264,1.0,6.0,71,0.00,,,0.00,meteohub,2013-08-08 21:25:00,
2013-08-08 17:30:00,78.6,68.9,30.01,SW,236,0.0,6.0,72,0.00,,,0.00,meteohub,2013-08-08 21:30:00,
2013-08-08 17:35:00,78.4,69.4,30.01,SSW,198,3.0,6.0,74,0.00,,,0.00,meteohub,2013-08-08 21:35:00,
2013-08-08 17:41:00,78.1,68.7,30.01,West,276,0.0,4.0,73,0.00,,,0.00,meteohub,2013-08-08 21:41:00,
2013-08-08 17:46:00,77.5,68.9,30.01,SSW,200,1.0,4.0,75,0.00,,,0.00,meteohub,2013-08-08 21:46:00,
2013-08-08 17:51:00,76.8,68.4,30.01,West,269,0.0,5.0,75,0.00,,,0.00,meteohub,2013-08-08 21:51:00,
2013-08-08 17:56:00,76.5,69.1,30.01,West,269,0.0,5.0,78,0.00,,,0.00,meteohub,2013-08-08 21:56:00,
2013-08-08 18:02:00,76.3,68.9,30.01,West,269,0.0,3.0,78,0.00,,,0.00,meteohub,2013-08-08 22:02:00,
2013-08-08 18:07:00,75.9,68.5,30.01,West,270,0.0,3.0,78,0.00,,,0.00,meteohub,2013-08-08 22:07:00,
2013-08-08 18:12:00,75.7,68.7,30.01,West,270,0.0,2.0,79,0.00,,,0.00,meteohub,2013-08-08 22:12:00,
2013-08-08 18:17:00,75.7,69.8,30.01,West,270,0.0,2.0,82,0.00,,,0.00,meteohub,2013-08-08 22:17:00,
2013-08-08 18:22:00,75.4,69.8,30.01,West,270,0.0,2.0,83,0.00,,,0.00,meteohub,2013-08-08 22:22:00,
2013-08-08 18:27:00,75.0,69.1,30.01,West,270,0.0,1.0,82,0.00,,,0.00,meteohub,2013-08-08 22:27:00,
2013-08-08 18:32:00,75.0,69.1,30.01,West,270,0.0,1.0,82,0.00,,,0.00,meteohub,2013-08-08 22:32:00,
2013-08-08 18:37:00,74.8,69.3,30.01,West,270,0.0,1.0,83,0.00,,,0.00,meteohub,2013-08-08 22:37:00,
2013-08-08 18:42:00,74.8,69.6,30.01,West,270,0.0,1.0,84,0.00,,,0.00,meteohub,2013-08-08 22:42:00,
2013-08-08 18:47:00,74.7,69.1,30.01,West,265,1.0,1.0,83,0.00,,,0.00,meteohub,2013-08-08 22:47:00,
2013-08-08 18:53:00,74.7,68.4,30.01,South,184,1.0,3.0,81,0.00,,,0.00,meteohub,2013-08-08 22:53:00,
2013-08-08 18:58:00,74.7,68.7,30.01,South,191,0.0,3.0,82,0.00,,,0.00,meteohub,2013-08-08 22:58:00,
2013-08-08 19:03:00,74.7,68.7,30.01,South,191,0.0,3.0,82,0.00,,,0.00,meteohub,2013-08-08 23:03:00,
2013-08-08 19:08:00,74.7,68.4,30.01,SSW,213,0.0,2.0,81,0.00,,,0.00,meteohub,2013-08-08 23:08:00,
2013-08-08 19:13:00,74.7,68.4,30.01,West,273,0.0,3.0,81,0.00,,,0.00,meteohub,2013-08-08 23:13:00,
2013-08-08 19:18:00,74.5,68.2,30.01,West,273,0.0,3.0,81,0.00,,,0.00,meteohub,2013-08-08 23:18:00,
2013-08-08 19:23:00,74.5,68.2,30.01,SW,226,1.0,3.0,81,0.00,,,0.00,meteohub,2013-08-08 23:23:00,
2013-08-08 19:28:00,74.1,68.2,30.02,WSW,257,2.0,5.0,82,0.00,,,0.00,meteohub,2013-08-08 23:28:00,
2013-08-08 19:33:00,73.9,68.2,30.02,WSW,257,0.0,5.0,82,0.00,,,0.00,meteohub,2013-08-08 23:33:00,
2013-08-08 19:38:00,73.8,68.4,30.02,WSW,257,0.0,5.0,83,0.00,,,0.00,meteohub,2013-08-08 23:38:00,
2013-08-08 19:44:00,73.6,68.4,30.01,WSW,257,0.0,2.0,84,0.00,,,0.00,meteohub,2013-08-08 23:44:00,
2013-08-08 19:49:00,73.0,68.2,30.01,West,261,0.0,2.0,85,0.00,,,0.00,meteohub,2013-08-08 23:49:00,
2013-08-08 19:55:00,72.7,67.8,30.02,West,261,0.0,2.0,85,0.00,,,0.00,meteohub,2013-08-08 23:55:00,
2013-08-08 20:00:00,72.5,67.8,30.02,SW,232,0.0,2.0,85,0.00,,,0.00,meteohub,2013-08-09 00:00:00,
2013-08-08 20:05:00,72.5,67.8,30.01,SW,232,0.0,4.0,85,0.00,,,0.00,meteohub,2013-08-09 00:05:00,
2013-08-08 20:10:00,72.5,67.8,30.01,SW,232,0.0,4.0,85,0.00,,,0.00,meteohub,2013-08-09 00:10:00,
2013-08-08 20:16:00,72.3,67.8,30.02,SW,232,1.0,2.0,86,0.00,,,0.00,meteohub,2013-08-09 00:16:00,
2013-08-08 20:21:00,72.1,67.5,30.02,NW,304,0.0,3.0,85,0.00,,,0.00,meteohub,2013-08-09 00:21:00,
2013-08-08 20:26:00,72.3,67.8,30.02,NW,304,0.0,3.0,86,0.00,,,0.00,meteohub,2013-08-09 00:26:00,
2013-08-08 20:32:00,72.1,67.6,30.02,NW,304,1.0,3.0,86,0.00,,,0.00,meteohub,2013-08-09 00:32:00,
2013-08-08 20:37:00,72.0,67.5,30.02,SE,138,0.0,2.0,86,0.00,,,0.00,meteohub,2013-08-09 00:37:00,
2013-08-08 20:42:00,71.8,67.6,30.02,SE,138,0.0,2.0,87,0.00,,,0.00,meteohub,2013-08-09 00:42:00,
2013-08-08 20:47:00,71.6,67.5,30.02,SE,138,0.0,2.0,87,0.00,,,0.00,meteohub,2013-08-09 00:47:00,
2013-08-08 20:52:00,71.2,67.5,30.02,SE,138,0.0,1.0,88,0.00,,,0.00,meteohub,2013-08-09 00:52:00,
2013-08-08 20:57:00,71.1,67.6,30.02,NW,310,0.0,1.0,89,0.00,,,0.00,meteohub,2013-08-09 00:57:00,
2013-08-08 21:02:00,71.1,67.3,30.03,WNW,290,0.0,5.0,88,0.00,,,0.00,meteohub,2013-08-09 01:02:00,
2013-08-08 21:07:00,71.2,67.5,30.03,WNW,290,0.0,5.0,88,0.00,,,0.00,meteohub,2013-08-09 01:07:00,
2013-08-08 21:13:00,71.1,67.3,30.03,WNW,290,0.0,4.0,88,0.00,,,0.00,meteohub,2013-08-09 01:13:00,
2013-08-08 21:19:00,70.5,67.1,30.03,WNW,290,0.0,3.0,89,0.00,,,0.00,meteohub,2013-08-09 01:19:00,
2013-08-08 21:24:00,70.5,67.5,30.03,WNW,290,0.0,2.0,90,0.00,,,0.00,meteohub,2013-08-09 01:24:00,
2013-08-08 21:29:00,70.3,66.9,30.03,WNW,290,0.0,2.0,89,0.00,,,0.00,meteohub,2013-08-09 01:29:00,
2013-08-08 21:34:00,70.5,67.1,30.03,WNW,290,0.0,2.0,89,0.00,,,0.00,meteohub,2013-08-09 01:34:00,
2013-08-08 21:39:00,70.7,67.3,30.03,WNW,290,0.0,1.0,89,0.00,,,0.00,meteohub,2013-08-09 01:39:00,
2013-08-08 21:44:00,70.9,67.1,30.03,WNW,290,0.0,1.0,88,0.00,,,0.00,meteohub,2013-08-09 01:44:00,
2013-08-08 21:49:00,70.5,67.1,30.03,WNW,290,1.0,1.0,89,0.00,,,0.00,meteohub,2013-08-09 01:49:00,
2013-08-08 21:54:00,70.5,67.1,30.03,WNW,290,0.0,1.0,89,0.00,,,0.00,meteohub,2013-08-09 01:54:00,
2013-08-08 21:59:00,70.5,67.1,30.03,WNW,290,0.0,1.0,89,0.00,,,0.00,meteohub,2013-08-09 01:59:00,
2013-08-08 22:05:00,70.2,67.1,30.03,WNW,290,0.0,1.0,90,0.00,,,0.00,meteohub,2013-08-09 02:05:00,
2013-08-08 22:10:00,70.0,66.9,30.02,WNW,290,0.0,1.0,90,0.00,,,0.00,meteohub,2013-08-09 02:10:00,
2013-08-08 22:15:00,69.8,67.1,30.02,WNW,290,0.0,1.0,91,0.00,,,0.00,meteohub,2013-08-09 02:15:00,
2013-08-08 22:21:00,69.6,66.9,30.02,WNW,290,0.0,1.0,91,0.00,,,0.00,meteohub,2013-08-09 02:21:00,
2013-08-08 22:26:00,69.6,66.9,30.02,WNW,290,1.0,1.0,91,0.00,,,0.00,meteohub,2013-08-09 02:26:00,
2013-08-08 22:31:00,69.4,67.1,30.02,WNW,290,0.0,1.0,92,0.00,,,0.00,meteohub,2013-08-09 02:31:00,
2013-08-08 22:36:00,69.3,66.9,30.02,WNW,290,0.0,1.0,92,0.00,,,0.00,meteohub,2013-08-09 02:36:00,
2013-08-08 22:42:00,69.4,67.1,30.02,WNW,290,0.0,1.0,92,0.00,,,0.00,meteohub,2013-08-09 02:42:00,
2013-08-08 22:47:00,69.4,67.1,30.02,WNW,290,0.0,1.0,92,0.00,,,0.00,meteohub,2013-08-09 02:47:00,
2013-08-08 22:52:00,69.3,66.9,30.02,WNW,290,0.0,1.0,92,0.00,,,0.00,meteohub,2013-08-09 02:52:00,
2013-08-08 22:57:00,69.3,66.9,30.02,WNW,290,0.0,1.0,92,0.00,,,0.00,meteohub,2013-08-09 02:57:00,
2013-08-08 23:02:00,69.3,66.9,30.02,WNW,290,0.0,1.0,92,0.00,,,0.00,meteohub,2013-08-09 03:02:00,
2013-08-08 23:07:00,69.3,67.1,30.01,WNW,290,0.0,1.0,93,0.00,,,0.00,meteohub,2013-08-09 03:07:00,
2013-08-08 23:12:00,69.4,67.3,30.01,WNW,290,0.0,1.0,93,0.00,,,0.00,meteohub,2013-08-09 03:12:00,
2013-08-08 23:17:00,69.4,67.3,30.01,WNW,290,1.0,1.0,93,0.00,,,0.00,meteohub,2013-08-09 03:17:00,
2013-08-08 23:22:00,70.0,67.5,30.01,NW,304,1.0,1.0,92,0.00,,,0.00,meteohub,2013-08-09 03:22:00,
2013-08-08 23:27:00,70.5,67.8,30.01,NW,304,0.0,5.0,91,0.00,,,0.00,meteohub,2013-08-09 03:27:00,
2013-08-08 23:33:00,70.7,67.6,30.01,SSE,166,0.0,5.0,90,0.00,,,0.00,meteohub,2013-08-09 03:33:00,
2013-08-08 23:38:00,70.9,67.8,30.01,SSE,166,0.0,5.0,90,0.00,,,0.00,meteohub,2013-08-09 03:38:00,
2013-08-08 23:43:00,70.7,68.0,30.01,SSE,166,0.0,2.0,91,0.00,,,0.00,meteohub,2013-08-09 03:43:00,
2013-08-08 23:48:00,70.5,67.8,30.01,South,171,0.0,1.0,91,0.00,,,0.00,meteohub,2013-08-09 03:48:00,
2013-08-08 23:53:00,70.5,67.8,30.00,South,171,0.0,3.0,91,0.00,,,0.00,meteohub,2013-08-09 03:53:00,
2013-08-08 23:59:00,70.5,67.8,30.00,South,171,0.0,3.0,91,0.00,,,0.00,meteohub,2013-08-09 03:59:00,